sensor_id;sensor_type;location;lat;lon;timestamp;P1;durP1;ratioP1;P2;durP2;ratioP2
33553;SDS011;19885;42.208;24.952;2023-05-10T12:50:43;1.80;;;1.70;;
33553;SDS011;19885;42.208;24.952;2023-05-10T12:55:35;10.23;;;4.00;;
33553;SDS011;19885;42.208;24.952;2023-05-10T12:58:01;4.00;;;2.33;;
33553;SDS011;19885;42.208;24.952;2023-05-10T13:00:27;5.03;;;2.43;;
33553;SDS011;19885;42.208;24.952;2023-05-10T13:02:53;6.10;;;2.73;;
33553;SDS011;19885;42.208;24.952;2023-05-10T13:05:21;7.23;;;2.90;;
33553;SDS011;19885;42.208;24.952;2023-05-10T13:07:47;5.73;;;2.77;;
33553;SDS011;19885;42.208;24.952;2023-05-10T13:10:12;2.80;;;2.37;;
33553;SDS011;19885;42.208;24.952;2023-05-10T13:12:38;3.10;;;2.00;;
33553;SDS011;19885;42.208;24.952;2023-05-10T13:15:05;2.70;;;1.73;;
33553;SDS011;19885;42.208;24.952;2023-05-10T13:17:31;2.10;;;2.00;;
33553;SDS011;19885;42.208;24.952;2023-05-10T13:19:57;3.13;;;2.00;;
33553;SDS011;19885;42.208;24.952;2023-05-10T13:22:23;5.03;;;2.10;;
33553;SDS011;19885;42.208;24.952;2023-05-10T13:24:49;4.47;;;2.57;;
33553;SDS011;19885;42.208;24.952;2023-05-10T13:27:15;1.63;;;1.53;;
33553;SDS011;19885;42.208;24.952;2023-05-10T13:29:41;2.00;;;1.50;;
33553;SDS011;19885;42.208;24.952;2023-05-10T13:32:06;2.27;;;1.83;;
33553;SDS011;19885;42.208;24.952;2023-05-10T13:34:32;3.47;;;1.80;;
33553;SDS011;19885;42.208;24.952;2023-05-10T13:48:06;2.40;;;2.17;;
33553;SDS011;19885;42.208;24.952;2023-05-10T13:50:31;7.17;;;2.10;;
33553;SDS011;19885;42.208;24.952;2023-05-10T13:52:57;2.90;;;1.97;;
33553;SDS011;19885;42.208;24.952;2023-05-10T13:55:22;1.87;;;1.67;;
33553;SDS011;19885;42.208;24.952;2023-05-10T13:57:48;1.67;;;1.40;;
33553;SDS011;19885;42.208;24.952;2023-05-10T14:00:13;2.57;;;1.67;;
33553;SDS011;19885;42.208;24.952;2023-05-10T14:02:39;7.93;;;1.80;;
33553;SDS011;19885;42.208;24.952;2023-05-10T14:05:05;1.80;;;1.70;;
33553;SDS011;19885;42.208;24.952;2023-05-10T14:07:31;1.50;;;1.40;;
33553;SDS011;19885;42.208;24.952;2023-05-10T14:09:56;1.97;;;1.70;;
33553;SDS011;19885;42.208;24.952;2023-05-10T14:12:22;3.30;;;1.60;;
33553;SDS011;19885;42.208;24.952;2023-05-10T14:14:47;6.77;;;1.80;;
33553;SDS011;19885;42.208;24.952;2023-05-10T14:17:12;2.87;;;2.23;;
33553;SDS011;19885;42.208;24.952;2023-05-10T14:19:38;1.30;;;1.20;;
33553;SDS011;19885;42.208;24.952;2023-05-10T14:22:03;2.00;;;1.77;;
33553;SDS011;19885;42.208;24.952;2023-05-10T14:24:29;2.50;;;2.00;;
33553;SDS011;19885;42.208;24.952;2023-05-10T14:26:54;1.83;;;1.60;;
33553;SDS011;19885;42.208;24.952;2023-05-10T14:29:20;2.30;;;2.10;;
33553;SDS011;19885;42.208;24.952;2023-05-10T14:31:46;4.37;;;1.63;;
33553;SDS011;19885;42.208;24.952;2023-05-10T14:34:12;2.63;;;1.53;;
33553;SDS011;19885;42.208;24.952;2023-05-10T14:36:37;3.60;;;1.73;;
33553;SDS011;19885;42.208;24.952;2023-05-10T14:39:03;4.30;;;2.00;;
33553;SDS011;19885;42.208;24.952;2023-05-10T14:41:29;0.83;;;0.83;;
33553;SDS011;19885;42.208;24.952;2023-05-10T14:43:55;1.93;;;1.50;;
33553;SDS011;19885;42.208;24.952;2023-05-10T14:46:21;3.53;;;2.00;;
33553;SDS011;19885;42.208;24.952;2023-05-10T14:48:46;2.00;;;1.63;;
33553;SDS011;19885;42.208;24.952;2023-05-10T14:51:12;1.63;;;1.53;;
33553;SDS011;19885;42.208;24.952;2023-05-10T14:53:37;1.77;;;1.57;;
33553;SDS011;19885;42.208;24.952;2023-05-10T14:56:03;2.93;;;1.87;;
33553;SDS011;19885;42.208;24.952;2023-05-10T14:58:28;4.07;;;1.40;;
33553;SDS011;19885;42.208;24.952;2023-05-10T15:00:55;1.17;;;1.00;;
33553;SDS011;19885;42.208;24.952;2023-05-10T15:03:21;4.27;;;1.60;;
33553;SDS011;19885;42.208;24.952;2023-05-10T15:05:47;1.70;;;1.60;;
33553;SDS011;19885;42.208;24.952;2023-05-10T15:08:12;1.50;;;1.40;;
33553;SDS011;19885;42.208;24.952;2023-05-10T15:10:38;1.60;;;1.50;;
33553;SDS011;19885;42.208;24.952;2023-05-10T15:13:04;2.67;;;1.83;;
33553;SDS011;19885;42.208;24.952;2023-05-10T15:15:29;1.70;;;1.60;;
33553;SDS011;19885;42.208;24.952;2023-05-10T15:17:55;1.50;;;1.40;;
33553;SDS011;19885;42.208;24.952;2023-05-10T15:20:21;2.60;;;1.70;;
33553;SDS011;19885;42.208;24.952;2023-05-10T15:22:46;2.00;;;1.30;;
33553;SDS011;19885;42.208;24.952;2023-05-10T15:25:12;4.13;;;1.80;;
33553;SDS011;19885;42.208;24.952;2023-05-10T15:27:39;1.50;;;1.40;;
33553;SDS011;19885;42.208;24.952;2023-05-10T15:30:04;4.27;;;1.50;;
33553;SDS011;19885;42.208;24.952;2023-05-10T15:32:30;1.87;;;1.77;;
33553;SDS011;19885;42.208;24.952;2023-05-10T15:34:56;2.07;;;1.60;;
33553;SDS011;19885;42.208;24.952;2023-05-10T15:37:21;2.57;;;1.80;;
33553;SDS011;19885;42.208;24.952;2023-05-10T15:39:48;2.33;;;2.07;;
33553;SDS011;19885;42.208;24.952;2023-05-10T15:42:14;4.97;;;1.97;;
33553;SDS011;19885;42.208;24.952;2023-05-10T15:44:39;4.20;;;2.17;;
33553;SDS011;19885;42.208;24.952;2023-05-10T15:47:05;2.23;;;2.10;;
33553;SDS011;19885;42.208;24.952;2023-05-10T15:49:31;2.70;;;1.97;;
33553;SDS011;19885;42.208;24.952;2023-05-10T15:51:57;3.50;;;2.23;;
33553;SDS011;19885;42.208;24.952;2023-05-10T15:54:22;5.23;;;1.63;;
33553;SDS011;19885;42.208;24.952;2023-05-10T15:56:48;2.30;;;2.10;;
33553;SDS011;19885;42.208;24.952;2023-05-10T15:59:13;3.33;;;1.97;;
33553;SDS011;19885;42.208;24.952;2023-05-10T16:01:39;2.43;;;1.93;;
33553;SDS011;19885;42.208;24.952;2023-05-10T16:04:04;2.20;;;1.70;;
33553;SDS011;19885;42.208;24.952;2023-05-10T16:06:30;5.67;;;2.00;;
33553;SDS011;19885;42.208;24.952;2023-05-10T16:08:56;2.03;;;1.83;;
33553;SDS011;19885;42.208;24.952;2023-05-10T16:11:22;2.97;;;1.87;;
33553;SDS011;19885;42.208;24.952;2023-05-10T16:13:47;4.77;;;1.80;;
33553;SDS011;19885;42.208;24.952;2023-05-10T16:16:12;2.30;;;1.67;;
33553;SDS011;19885;42.208;24.952;2023-05-10T16:18:38;2.37;;;1.63;;
33553;SDS011;19885;42.208;24.952;2023-05-10T16:21:03;1.67;;;1.40;;
33553;SDS011;19885;42.208;24.952;2023-05-10T16:23:29;1.97;;;1.43;;
33553;SDS011;19885;42.208;24.952;2023-05-10T16:25:54;7.03;;;2.30;;
33553;SDS011;19885;42.208;24.952;2023-05-10T16:28:20;2.53;;;1.77;;
33553;SDS011;19885;42.208;24.952;2023-05-10T16:30:46;3.97;;;1.83;;
33553;SDS011;19885;42.208;24.952;2023-05-10T16:33:12;1.60;;;1.50;;
33553;SDS011;19885;42.208;24.952;2023-05-10T16:35:38;2.87;;;1.30;;
33553;SDS011;19885;42.208;24.952;2023-05-10T16:38:04;2.50;;;1.60;;
33553;SDS011;19885;42.208;24.952;2023-05-10T16:40:29;1.47;;;1.30;;
33553;SDS011;19885;42.208;24.952;2023-05-10T16:42:55;5.17;;;1.97;;
33553;SDS011;19885;42.208;24.952;2023-05-10T16:45:22;1.43;;;1.33;;
33553;SDS011;19885;42.208;24.952;2023-05-10T16:47:48;2.50;;;1.73;;
33553;SDS011;19885;42.208;24.952;2023-05-10T16:50:13;3.43;;;2.00;;
33553;SDS011;19885;42.208;24.952;2023-05-10T16:52:39;3.07;;;2.00;;
33553;SDS011;19885;42.208;24.952;2023-05-10T16:55:05;5.77;;;2.50;;
33553;SDS011;19885;42.208;24.952;2023-05-10T16:57:31;2.70;;;1.80;;
33553;SDS011;19885;42.208;24.952;2023-05-10T16:59:57;2.60;;;2.10;;
33553;SDS011;19885;42.208;24.952;2023-05-10T17:02:23;3.17;;;2.50;;
33553;SDS011;19885;42.208;24.952;2023-05-10T17:04:48;3.73;;;2.30;;
33553;SDS011;19885;42.208;24.952;2023-05-10T17:07:14;5.93;;;2.40;;
33553;SDS011;19885;42.208;24.952;2023-05-10T17:09:42;2.57;;;2.17;;
33553;SDS011;19885;42.208;24.952;2023-05-10T17:12:08;6.63;;;2.83;;
33553;SDS011;19885;42.208;24.952;2023-05-10T17:14:34;3.87;;;2.50;;
33553;SDS011;19885;42.208;24.952;2023-05-10T17:17:00;4.10;;;2.23;;
33553;SDS011;19885;42.208;24.952;2023-05-10T17:19:26;5.90;;;3.23;;
33553;SDS011;19885;42.208;24.952;2023-05-10T17:21:52;5.10;;;2.80;;
33553;SDS011;19885;42.208;24.952;2023-05-10T17:24:17;3.07;;;2.10;;
33553;SDS011;19885;42.208;24.952;2023-05-10T17:26:43;9.40;;;2.87;;
33553;SDS011;19885;42.208;24.952;2023-05-10T17:29:09;3.20;;;2.47;;
33553;SDS011;19885;42.208;24.952;2023-05-10T17:31:34;2.07;;;1.70;;
33553;SDS011;19885;42.208;24.952;2023-05-10T17:34:03;4.37;;;2.40;;
33553;SDS011;19885;42.208;24.952;2023-05-10T17:36:28;3.17;;;2.70;;
33553;SDS011;19885;42.208;24.952;2023-05-10T17:38:54;4.20;;;2.27;;
33553;SDS011;19885;42.208;24.952;2023-05-10T17:41:19;4.30;;;2.67;;
33553;SDS011;19885;42.208;24.952;2023-05-10T17:43:48;3.97;;;2.40;;
33553;SDS011;19885;42.208;24.952;2023-05-10T17:46:14;3.70;;;2.50;;
33553;SDS011;19885;42.208;24.952;2023-05-10T17:48:40;7.07;;;2.90;;
33553;SDS011;19885;42.208;24.952;2023-05-10T17:51:05;4.57;;;3.17;;
33553;SDS011;19885;42.208;24.952;2023-05-10T17:53:32;4.70;;;3.43;;
33553;SDS011;19885;42.208;24.952;2023-05-10T17:55:59;3.30;;;3.00;;
33553;SDS011;19885;42.208;24.952;2023-05-10T17:58:26;4.90;;;3.07;;
33553;SDS011;19885;42.208;24.952;2023-05-10T18:00:52;7.90;;;3.43;;
33553;SDS011;19885;42.208;24.952;2023-05-10T18:03:19;7.00;;;3.37;;
33553;SDS011;19885;42.208;24.952;2023-05-10T18:05:46;4.83;;;3.40;;
33553;SDS011;19885;42.208;24.952;2023-05-10T18:08:12;4.63;;;3.10;;
33553;SDS011;19885;42.208;24.952;2023-05-10T18:10:38;6.80;;;3.27;;
33553;SDS011;19885;42.208;24.952;2023-05-10T18:13:04;6.43;;;3.10;;
33553;SDS011;19885;42.208;24.952;2023-05-10T18:15:31;4.43;;;3.33;;
33553;SDS011;19885;42.208;24.952;2023-05-10T18:18:01;8.63;;;3.60;;
33553;SDS011;19885;42.208;24.952;2023-05-10T18:20:28;4.60;;;3.80;;
33553;SDS011;19885;42.208;24.952;2023-05-10T18:22:54;8.60;;;4.43;;
33553;SDS011;19885;42.208;24.952;2023-05-10T18:25:19;7.40;;;3.87;;
33553;SDS011;19885;42.208;24.952;2023-05-10T18:27:45;8.53;;;3.90;;
33553;SDS011;19885;42.208;24.952;2023-05-10T18:30:11;7.07;;;4.60;;
33553;SDS011;19885;42.208;24.952;2023-05-10T18:32:37;10.23;;;4.13;;
33553;SDS011;19885;42.208;24.952;2023-05-10T18:35:03;6.67;;;4.47;;
33553;SDS011;19885;42.208;24.952;2023-05-10T18:37:30;6.47;;;3.90;;
33553;SDS011;19885;42.208;24.952;2023-05-10T18:39:55;4.93;;;4.30;;
33553;SDS011;19885;42.208;24.952;2023-05-10T18:42:21;10.10;;;5.07;;
33553;SDS011;19885;42.208;24.952;2023-05-10T18:44:47;8.37;;;4.37;;
33553;SDS011;19885;42.208;24.952;2023-05-10T18:47:12;10.33;;;3.50;;
33553;SDS011;19885;42.208;24.952;2023-05-10T18:49:38;4.47;;;2.93;;
33553;SDS011;19885;42.208;24.952;2023-05-10T18:52:07;6.87;;;3.30;;
33553;SDS011;19885;42.208;24.952;2023-05-10T18:54:33;6.20;;;4.23;;
33553;SDS011;19885;42.208;24.952;2023-05-10T18:56:59;9.77;;;3.60;;
33553;SDS011;19885;42.208;24.952;2023-05-10T18:59:24;3.90;;;3.23;;
33553;SDS011;19885;42.208;24.952;2023-05-10T19:01:51;3.90;;;3.33;;
33553;SDS011;19885;42.208;24.952;2023-05-10T19:04:17;4.70;;;3.00;;
33553;SDS011;19885;42.208;24.952;2023-05-10T19:06:42;8.37;;;4.53;;
33553;SDS011;19885;42.208;24.952;2023-05-10T19:09:07;9.57;;;4.07;;
33553;SDS011;19885;42.208;24.952;2023-05-10T19:11:33;16.10;;;4.83;;
33553;SDS011;19885;42.208;24.952;2023-05-10T19:14:00;19.33;;;7.07;;
33553;SDS011;19885;42.208;24.952;2023-05-10T19:16:26;10.17;;;4.77;;
33553;SDS011;19885;42.208;24.952;2023-05-10T19:18:53;13.60;;;6.23;;
33553;SDS011;19885;42.208;24.952;2023-05-10T19:21:19;12.33;;;5.37;;
33553;SDS011;19885;42.208;24.952;2023-05-10T19:23:44;14.97;;;5.93;;
33553;SDS011;19885;42.208;24.952;2023-05-10T19:26:10;7.40;;;3.87;;
33553;SDS011;19885;42.208;24.952;2023-05-10T19:28:36;3.00;;;2.70;;
33553;SDS011;19885;42.208;24.952;2023-05-10T19:31:02;5.67;;;3.10;;
33553;SDS011;19885;42.208;24.952;2023-05-10T19:33:31;3.10;;;2.80;;
33553;SDS011;19885;42.208;24.952;2023-05-10T19:35:56;3.27;;;2.73;;
33553;SDS011;19885;42.208;24.952;2023-05-10T19:38:22;4.73;;;2.20;;
33553;SDS011;19885;42.208;24.952;2023-05-10T19:40:48;3.83;;;2.43;;
33553;SDS011;19885;42.208;24.952;2023-05-10T19:43:14;6.17;;;2.43;;
33553;SDS011;19885;42.208;24.952;2023-05-10T19:45:40;3.93;;;2.57;;
33553;SDS011;19885;42.208;24.952;2023-05-10T19:48:05;3.97;;;2.23;;
33553;SDS011;19885;42.208;24.952;2023-05-10T19:50:31;2.57;;;2.37;;
33553;SDS011;19885;42.208;24.952;2023-05-10T19:52:56;3.90;;;2.30;;
33553;SDS011;19885;42.208;24.952;2023-05-10T19:55:29;5.43;;;2.60;;
33553;SDS011;19885;42.208;24.952;2023-05-10T19:57:55;3.33;;;2.60;;
33553;SDS011;19885;42.208;24.952;2023-05-10T20:00:21;4.67;;;2.87;;
33553;SDS011;19885;42.208;24.952;2023-05-10T20:02:47;2.87;;;2.17;;
33553;SDS011;19885;42.208;24.952;2023-05-10T20:05:13;4.87;;;2.47;;
33553;SDS011;19885;42.208;24.952;2023-05-10T20:07:39;7.57;;;2.40;;
33553;SDS011;19885;42.208;24.952;2023-05-10T20:10:04;2.60;;;2.40;;
33553;SDS011;19885;42.208;24.952;2023-05-10T20:12:30;3.40;;;2.30;;
33553;SDS011;19885;42.208;24.952;2023-05-10T20:14:56;2.27;;;2.07;;
33553;SDS011;19885;42.208;24.952;2023-05-10T20:17:21;4.13;;;2.03;;
33553;SDS011;19885;42.208;24.952;2023-05-10T20:19:47;4.37;;;2.27;;
33553;SDS011;19885;42.208;24.952;2023-05-10T20:22:12;3.10;;;2.30;;
33553;SDS011;19885;42.208;24.952;2023-05-10T20:24:38;2.50;;;2.10;;
33553;SDS011;19885;42.208;24.952;2023-05-10T20:27:03;4.23;;;2.63;;
33553;SDS011;19885;42.208;24.952;2023-05-10T20:29:29;2.20;;;2.00;;
33553;SDS011;19885;42.208;24.952;2023-05-10T20:31:56;2.00;;;1.80;;
33553;SDS011;19885;42.208;24.952;2023-05-10T20:34:22;5.17;;;2.57;;
33553;SDS011;19885;42.208;24.952;2023-05-10T20:36:47;6.77;;;2.77;;
33553;SDS011;19885;42.208;24.952;2023-05-10T20:39:13;4.60;;;2.90;;
33553;SDS011;19885;42.208;24.952;2023-05-10T20:41:39;5.00;;;3.10;;
33553;SDS011;19885;42.208;24.952;2023-05-10T20:44:04;3.77;;;2.97;;
33553;SDS011;19885;42.208;24.952;2023-05-10T20:46:30;3.53;;;3.23;;
33553;SDS011;19885;42.208;24.952;2023-05-10T20:48:56;3.20;;;2.70;;
33553;SDS011;19885;42.208;24.952;2023-05-10T20:51:22;5.07;;;3.50;;
33553;SDS011;19885;42.208;24.952;2023-05-10T20:53:48;8.90;;;3.40;;
33553;SDS011;19885;42.208;24.952;2023-05-10T20:56:14;6.10;;;3.57;;
33553;SDS011;19885;42.208;24.952;2023-05-10T20:58:39;3.83;;;3.30;;
33553;SDS011;19885;42.208;24.952;2023-05-10T21:01:05;8.43;;;3.23;;
33553;SDS011;19885;42.208;24.952;2023-05-10T21:03:33;5.17;;;3.37;;
33553;SDS011;19885;42.208;24.952;2023-05-10T21:05:59;5.80;;;3.57;;
33553;SDS011;19885;42.208;24.952;2023-05-10T21:08:25;4.30;;;3.70;;
33553;SDS011;19885;42.208;24.952;2023-05-10T21:10:51;5.63;;;4.13;;
33553;SDS011;19885;42.208;24.952;2023-05-10T21:13:16;6.60;;;4.33;;
33553;SDS011;19885;42.208;24.952;2023-05-10T21:15:42;4.70;;;3.53;;
33553;SDS011;19885;42.208;24.952;2023-05-10T21:18:07;10.43;;;3.67;;
33553;SDS011;19885;42.208;24.952;2023-05-10T21:20:33;9.10;;;3.57;;
33553;SDS011;19885;42.208;24.952;2023-05-10T21:22:58;4.23;;;2.97;;
33553;SDS011;19885;42.208;24.952;2023-05-10T21:25:24;3.80;;;3.43;;
33553;SDS011;19885;42.208;24.952;2023-05-10T21:27:49;4.83;;;3.47;;
33553;SDS011;19885;42.208;24.952;2023-05-10T21:30:15;3.93;;;3.30;;
33553;SDS011;19885;42.208;24.952;2023-05-10T21:32:40;8.33;;;3.63;;
33553;SDS011;19885;42.208;24.952;2023-05-10T21:35:06;3.53;;;3.17;;
33553;SDS011;19885;42.208;24.952;2023-05-10T21:37:32;5.80;;;4.00;;
33553;SDS011;19885;42.208;24.952;2023-05-10T21:39:58;6.87;;;4.90;;
33553;SDS011;19885;42.208;24.952;2023-05-10T21:42:24;7.23;;;4.67;;
33553;SDS011;19885;42.208;24.952;2023-05-10T21:44:49;8.90;;;5.43;;
33553;SDS011;19885;42.208;24.952;2023-05-10T21:47:14;8.40;;;4.93;;
33553;SDS011;19885;42.208;24.952;2023-05-10T21:49:41;16.63;;;4.90;;
33553;SDS011;19885;42.208;24.952;2023-05-10T21:52:06;6.37;;;4.47;;
33553;SDS011;19885;42.208;24.952;2023-05-10T21:54:32;8.40;;;3.77;;
33553;SDS011;19885;42.208;24.952;2023-05-10T21:56:58;8.63;;;3.80;;
33553;SDS011;19885;42.208;24.952;2023-05-10T21:59:24;7.63;;;4.20;;
33553;SDS011;19885;42.208;24.952;2023-05-10T22:01:49;4.20;;;3.03;;
33553;SDS011;19885;42.208;24.952;2023-05-10T22:04:15;8.60;;;4.17;;
33553;SDS011;19885;42.208;24.952;2023-05-10T22:06:40;4.70;;;3.93;;
33553;SDS011;19885;42.208;24.952;2023-05-10T22:09:06;7.53;;;4.40;;
33553;SDS011;19885;42.208;24.952;2023-05-10T22:11:31;4.87;;;3.70;;
33553;SDS011;19885;42.208;24.952;2023-05-10T22:13:57;5.43;;;4.23;;
33553;SDS011;19885;42.208;24.952;2023-05-10T22:16:23;11.53;;;5.67;;
33553;SDS011;19885;42.208;24.952;2023-05-10T22:18:48;6.17;;;3.80;;
33553;SDS011;19885;42.208;24.952;2023-05-10T22:21:14;4.63;;;3.20;;
33553;SDS011;19885;42.208;24.952;2023-05-10T22:23:39;6.70;;;3.50;;
33553;SDS011;19885;42.208;24.952;2023-05-10T22:26:05;5.93;;;3.43;;
33553;SDS011;19885;42.208;24.952;2023-05-10T22:28:31;5.17;;;3.30;;
33553;SDS011;19885;42.208;24.952;2023-05-10T22:30:56;3.93;;;3.57;;
33553;SDS011;19885;42.208;24.952;2023-05-10T22:33:22;4.93;;;3.40;;
33553;SDS011;19885;42.208;24.952;2023-05-10T22:35:47;5.23;;;3.53;;
33553;SDS011;19885;42.208;24.952;2023-05-10T22:38:13;5.60;;;3.37;;
33553;SDS011;19885;42.208;24.952;2023-05-10T22:40:38;6.60;;;3.33;;
33553;SDS011;19885;42.208;24.952;2023-05-10T22:43:04;6.00;;;3.67;;
33553;SDS011;19885;42.208;24.952;2023-05-10T22:45:29;4.90;;;4.03;;
33553;SDS011;19885;42.208;24.952;2023-05-10T22:47:55;6.77;;;3.93;;
33553;SDS011;19885;42.208;24.952;2023-05-10T22:50:20;8.33;;;4.20;;
33553;SDS011;19885;42.208;24.952;2023-05-10T22:52:46;10.30;;;4.07;;
33553;SDS011;19885;42.208;24.952;2023-05-10T22:55:11;6.10;;;3.93;;
33553;SDS011;19885;42.208;24.952;2023-05-10T22:57:37;3.30;;;2.70;;
33553;SDS011;19885;42.208;24.952;2023-05-10T23:00:03;4.07;;;2.73;;
33553;SDS011;19885;42.208;24.952;2023-05-10T23:02:29;15.60;;;3.67;;
33553;SDS011;19885;42.208;24.952;2023-05-10T23:04:55;4.23;;;3.13;;
33553;SDS011;19885;42.208;24.952;2023-05-10T23:07:21;4.27;;;3.00;;
33553;SDS011;19885;42.208;24.952;2023-05-10T23:09:48;3.30;;;2.87;;
33553;SDS011;19885;42.208;24.952;2023-05-10T23:12:13;6.53;;;2.97;;
33553;SDS011;19885;42.208;24.952;2023-05-10T23:14:42;5.33;;;3.00;;
33553;SDS011;19885;42.208;24.952;2023-05-10T23:17:10;5.70;;;3.27;;
33553;SDS011;19885;42.208;24.952;2023-05-10T23:19:36;12.67;;;2.77;;
33553;SDS011;19885;42.208;24.952;2023-05-10T23:22:01;4.33;;;2.80;;
33553;SDS011;19885;42.208;24.952;2023-05-10T23:24:27;4.53;;;2.77;;
33553;SDS011;19885;42.208;24.952;2023-05-10T23:26:53;3.00;;;2.63;;
33553;SDS011;19885;42.208;24.952;2023-05-10T23:29:18;8.23;;;3.37;;
33553;SDS011;19885;42.208;24.952;2023-05-10T23:31:46;2.63;;;2.43;;
33553;SDS011;19885;42.208;24.952;2023-05-10T23:34:13;5.87;;;3.13;;
33553;SDS011;19885;42.208;24.952;2023-05-10T23:36:38;4.03;;;2.60;;
33553;SDS011;19885;42.208;24.952;2023-05-10T23:39:04;4.03;;;2.80;;
33553;SDS011;19885;42.208;24.952;2023-05-10T23:41:29;4.17;;;2.70;;
33553;SDS011;19885;42.208;24.952;2023-05-10T23:43:55;6.10;;;2.20;;
33553;SDS011;19885;42.208;24.952;2023-05-10T23:46:21;2.77;;;2.27;;
33553;SDS011;19885;42.208;24.952;2023-05-10T23:48:46;4.87;;;3.13;;
33553;SDS011;19885;42.208;24.952;2023-05-10T23:51:12;3.87;;;2.43;;
33553;SDS011;19885;42.208;24.952;2023-05-10T23:53:37;3.97;;;2.67;;
33553;SDS011;19885;42.208;24.952;2023-05-10T23:56:03;4.80;;;2.90;;
33553;SDS011;19885;42.208;24.952;2023-05-10T23:58:29;3.40;;;2.47;;
